createdAt,value
2017-07-06T00:01:36.986Z,3.03
2017-07-06T00:04:03.662Z,2.60
2017-07-06T00:06:30.313Z,2.90
2017-07-06T00:08:56.950Z,3.00
2017-07-06T00:11:23.606Z,3.03
2017-07-06T00:13:50.304Z,3.00
2017-07-06T00:16:16.985Z,3.00
2017-07-06T00:18:43.639Z,2.97
2017-07-06T00:21:10.293Z,3.07
2017-07-06T00:23:37.015Z,3.20
2017-07-06T00:26:03.644Z,3.10
2017-07-06T00:28:30.297Z,2.73
2017-07-06T00:30:56.927Z,3.20
2017-07-06T00:33:23.575Z,3.03
2017-07-06T00:35:50.286Z,3.00
2017-07-06T00:38:16.932Z,2.70
2017-07-06T00:40:43.592Z,2.70
2017-07-06T00:43:10.248Z,2.90
2017-07-06T00:45:36.922Z,3.40
2017-07-06T00:48:03.569Z,3.63
2017-07-06T00:50:30.240Z,3.13
2017-07-06T00:52:56.887Z,2.80
2017-07-06T00:55:23.528Z,3.10
2017-07-06T00:57:50.192Z,3.00
2017-07-06T01:00:16.893Z,3.20
2017-07-06T01:02:43.576Z,3.17
2017-07-06T01:05:10.261Z,3.30
2017-07-06T01:07:36.900Z,3.90
2017-07-06T01:10:03.554Z,2.80
2017-07-06T01:12:30.248Z,3.20
2017-07-06T01:14:56.880Z,4.33
2017-07-06T01:17:23.509Z,4.20
2017-07-06T01:19:50.187Z,3.50
2017-07-06T01:22:16.821Z,4.07
2017-07-06T01:24:43.467Z,3.57
2017-07-06T01:27:10.141Z,3.87
2017-07-06T01:29:36.803Z,3.80
2017-07-06T01:32:03.447Z,3.23
2017-07-06T01:34:30.148Z,4.33
2017-07-06T01:36:56.799Z,4.03
2017-07-06T01:39:23.458Z,3.90
2017-07-06T01:41:50.187Z,3.80
2017-07-06T01:44:16.820Z,4.00
2017-07-06T01:46:43.481Z,4.73
2017-07-06T01:49:10.184Z,4.00
2017-07-06T01:51:36.851Z,4.50
2017-07-06T01:54:03.506Z,4.53
2017-07-06T01:56:30.192Z,4.30
2017-07-06T01:58:56.846Z,4.10
2017-07-06T02:01:23.511Z,4.10
2017-07-06T02:03:50.181Z,4.43
2017-07-06T02:06:16.818Z,4.40
2017-07-06T02:08:43.457Z,4.13
2017-07-06T02:11:10.127Z,5.37
2017-07-06T02:13:36.768Z,5.53
2017-07-06T02:16:03.420Z,5.10
2017-07-06T02:18:30.152Z,5.17
2017-07-06T02:20:56.815Z,4.60
2017-07-06T02:23:23.451Z,5.67
2017-07-06T02:25:50.104Z,5.73
2017-07-06T02:28:16.757Z,4.90
2017-07-06T02:30:43.401Z,5.20
2017-07-06T02:33:10.067Z,4.90
2017-07-06T02:35:36.722Z,5.20
2017-07-06T02:38:03.379Z,5.50
2017-07-06T02:40:30.059Z,4.80
2017-07-06T02:42:56.696Z,5.70
2017-07-06T02:45:23.328Z,5.40
2017-07-06T02:47:49.979Z,5.07
2017-07-06T02:50:16.631Z,4.93
2017-07-06T02:52:43.286Z,5.93
2017-07-06T02:55:09.957Z,5.60
2017-07-06T02:57:36.605Z,5.40
2017-07-06T03:00:03.258Z,5.43
2017-07-06T03:02:30.016Z,5.27
2017-07-06T03:04:56.653Z,6.00
2017-07-06T03:07:23.292Z,6.07
2017-07-06T03:09:49.944Z,6.00
2017-07-06T03:12:16.597Z,5.77
2017-07-06T03:14:43.249Z,5.93
2017-07-06T03:17:09.936Z,5.40
2017-07-06T03:19:36.583Z,5.73
2017-07-06T03:22:03.217Z,6.30
2017-07-06T03:24:30.031Z,6.50
2017-07-06T03:26:56.683Z,6.20
2017-07-06T03:29:23.338Z,6.03
2017-07-06T03:31:49.996Z,6.50
2017-07-06T03:34:16.651Z,7.67
2017-07-06T03:36:43.317Z,7.70
2017-07-06T03:39:10.012Z,7.70
2017-07-06T03:41:36.648Z,8.43
2017-07-06T03:44:03.296Z,7.03
2017-07-06T03:46:29.951Z,8.03
2017-07-06T03:48:56.606Z,7.63
2017-07-06T03:51:23.263Z,8.00
2017-07-06T03:53:49.970Z,8.00
2017-07-06T03:56:16.623Z,7.93
2017-07-06T03:58:43.283Z,7.90
2017-07-06T04:01:09.970Z,8.27
2017-07-06T04:03:36.629Z,7.70
2017-07-06T04:06:03.278Z,7.53
2017-07-06T04:08:29.963Z,7.40
2017-07-06T04:10:56.622Z,8.10
2017-07-06T04:13:23.273Z,7.50
2017-07-06T04:15:49.949Z,7.17
2017-07-06T04:18:16.599Z,8.47
2017-07-06T04:20:43.292Z,7.77
2017-07-06T04:23:09.972Z,8.00
2017-07-06T04:25:36.605Z,8.40
2017-07-06T04:28:03.266Z,9.37
2017-07-06T04:30:29.971Z,8.60
2017-07-06T04:32:56.620Z,10.13
2017-07-06T04:35:23.295Z,10.20
2017-07-06T04:37:50.010Z,11.80
2017-07-06T04:40:16.662Z,9.03
2017-07-06T04:42:43.322Z,9.50
2017-07-06T04:45:10.088Z,10.13
2017-07-06T04:47:36.764Z,10.47
2017-07-06T04:50:03.447Z,10.13
2017-07-06T04:52:30.158Z,11.50
2017-07-06T04:54:56.823Z,14.53
2017-07-06T04:57:23.487Z,10.17
2017-07-06T04:59:50.167Z,10.80
2017-07-06T05:02:16.827Z,11.10
2017-07-06T05:04:43.551Z,10.77
2017-07-06T05:07:10.316Z,10.77
2017-07-06T05:09:36.956Z,10.50
2017-07-06T05:12:03.623Z,13.63
2017-07-06T05:14:30.321Z,11.53
2017-07-06T05:16:56.978Z,11.37
2017-07-06T05:19:23.661Z,11.67
2017-07-06T05:21:50.326Z,10.93
2017-07-06T05:24:16.982Z,12.00
2017-07-06T05:26:43.643Z,10.70
2017-07-06T05:29:10.359Z,10.80
2017-07-06T05:31:37.036Z,10.53
2017-07-06T05:34:03.706Z,11.13
2017-07-06T05:36:30.380Z,10.50
2017-07-06T05:38:57.038Z,12.30
2017-07-06T05:41:23.707Z,12.07
2017-07-06T05:43:50.369Z,9.73
2017-07-06T05:46:17.028Z,11.50
2017-07-06T05:48:43.739Z,9.70
2017-07-06T05:51:10.499Z,10.50
2017-07-06T05:53:37.137Z,9.97
2017-07-06T05:56:03.814Z,10.05
2017-07-06T05:58:30.487Z,10.40
2017-07-06T06:00:57.151Z,13.50
2017-07-06T06:03:23.812Z,12.20
2017-07-06T06:05:50.484Z,11.33
2017-07-06T06:08:17.145Z,10.43
2017-07-06T06:10:43.788Z,10.50
2017-07-06T06:13:10.506Z,10.60
2017-07-06T06:15:37.168Z,10.57
2017-07-06T06:18:03.831Z,10.90
2017-07-06T06:20:30.492Z,11.80
2017-07-06T06:22:57.155Z,12.63
2017-07-06T06:25:23.884Z,15.00
2017-07-06T06:27:50.545Z,12.70
2017-07-06T06:30:17.202Z,14.30
2017-07-06T06:32:43.877Z,13.13
2017-07-06T06:35:10.569Z,18.20
2017-07-06T06:37:37.227Z,16.00
2017-07-06T06:40:03.941Z,17.47
2017-07-06T06:42:30.663Z,16.93
2017-07-06T06:44:57.363Z,19.57
2017-07-06T06:47:24.018Z,18.70
2017-07-06T06:49:50.674Z,17.40
2017-07-06T06:52:17.363Z,17.57
2017-07-06T06:54:44.013Z,16.47
2017-07-06T06:57:10.664Z,14.87
2017-07-06T06:59:37.340Z,15.87
2017-07-06T07:02:03.986Z,14.70
2017-07-06T07:04:30.651Z,15.43
2017-07-06T07:06:57.331Z,17.33
2017-07-06T07:09:24.008Z,17.20
2017-07-06T07:11:50.676Z,16.97
2017-07-06T07:14:17.380Z,15.10
2017-07-06T07:16:44.047Z,15.50
2017-07-06T07:19:10.701Z,16.93
2017-07-06T07:21:37.373Z,16.47
2017-07-06T07:24:04.034Z,18.10
2017-07-06T07:26:30.679Z,19.33
2017-07-06T07:28:57.354Z,18.23
2017-07-06T07:31:24.013Z,19.30
2017-07-06T07:33:50.656Z,17.00
2017-07-06T07:36:17.332Z,17.70
2017-07-06T07:38:43.988Z,17.93
2017-07-06T07:41:10.628Z,18.37
2017-07-06T07:43:37.331Z,16.87
2017-07-06T07:46:03.983Z,18.13
2017-07-06T07:48:30.629Z,19.20
2017-07-06T07:50:57.287Z,19.90
2017-07-06T07:53:23.966Z,17.57
2017-07-06T07:55:50.636Z,18.93
2017-07-06T07:58:17.291Z,18.00
2017-07-06T08:00:43.973Z,18.43
2017-07-06T08:03:10.624Z,20.50
2017-07-06T08:05:37.268Z,20.17
2017-07-06T08:08:03.943Z,19.63
2017-07-06T08:10:30.588Z,18.10
2017-07-06T08:12:57.256Z,18.10
2017-07-06T08:15:23.956Z,19.47
2017-07-06T08:17:50.604Z,18.20
2017-07-06T08:20:17.244Z,19.60
2017-07-06T08:22:43.931Z,17.80
2017-07-06T08:25:10.598Z,18.97
2017-07-06T08:27:37.236Z,21.10
2017-07-06T08:30:03.925Z,19.30
2017-07-06T08:32:30.572Z,18.80
2017-07-06T08:34:57.212Z,17.03
2017-07-06T08:37:23.898Z,15.97
2017-07-06T08:39:50.584Z,19.37
2017-07-06T08:42:17.232Z,16.77
2017-07-06T08:44:43.932Z,15.97
2017-07-06T08:47:10.596Z,18.53
2017-07-06T08:49:37.241Z,13.33
2017-07-06T08:52:03.955Z,13.03
2017-07-06T08:54:30.639Z,14.30
2017-07-06T08:56:57.280Z,13.57
2017-07-06T08:59:23.965Z,13.27
2017-07-06T09:01:50.618Z,15.47
2017-07-06T09:04:17.265Z,13.97
2017-07-06T09:06:43.940Z,13.20
2017-07-06T09:09:10.610Z,11.00
2017-07-06T09:11:37.267Z,12.67
2017-07-06T09:14:03.987Z,13.23
2017-07-06T09:16:30.628Z,12.00
2017-07-06T09:18:57.290Z,11.77
2017-07-06T09:21:24.257Z,10.70
2017-07-06T09:23:50.911Z,12.03
2017-07-06T09:26:17.576Z,12.73
2017-07-06T09:28:44.268Z,11.87
2017-07-06T09:31:10.929Z,11.17
2017-07-06T09:33:37.604Z,12.00
2017-07-06T09:36:04.392Z,11.20
2017-07-06T09:38:31.046Z,11.30
2017-07-06T09:40:57.708Z,10.60
2017-07-06T09:43:24.406Z,11.80
2017-07-06T09:45:51.067Z,12.10
2017-07-06T09:48:17.722Z,9.57
2017-07-06T09:50:44.423Z,8.60
2017-07-06T09:53:11.078Z,9.40
2017-07-06T09:55:37.716Z,9.70
2017-07-06T09:58:04.399Z,10.57
2017-07-06T10:00:31.045Z,10.67
2017-07-06T10:02:57.685Z,9.67
2017-07-06T10:05:24.539Z,8.50
2017-07-06T10:07:51.186Z,9.37
2017-07-06T10:10:17.841Z,7.70
2017-07-06T10:12:44.512Z,9.57
2017-07-06T10:15:11.149Z,8.53
2017-07-06T10:17:37.784Z,6.70
2017-07-06T10:20:04.512Z,6.23
2017-07-06T10:22:31.175Z,9.90
2017-07-06T10:24:57.827Z,8.70
2017-07-06T10:27:24.525Z,8.70
2017-07-06T10:29:51.159Z,8.23
2017-07-06T10:32:17.801Z,8.10
2017-07-06T10:34:44.499Z,7.00
2017-07-06T10:37:11.140Z,9.20
2017-07-06T10:39:37.783Z,8.90
2017-07-06T10:42:04.444Z,8.97
2017-07-06T10:44:31.095Z,9.87
2017-07-06T10:46:57.736Z,9.60
2017-07-06T10:49:24.434Z,9.93
2017-07-06T10:51:51.085Z,9.17
2017-07-06T10:54:17.722Z,9.00
2017-07-06T10:56:44.429Z,8.50
2017-07-06T10:59:11.090Z,8.00
2017-07-06T11:01:37.750Z,9.50
2017-07-06T11:04:04.416Z,10.27
2017-07-06T11:06:31.060Z,10.10
2017-07-06T11:08:57.710Z,9.70
2017-07-06T11:11:24.430Z,12.07
2017-07-06T11:13:51.094Z,10.20
2017-07-06T11:16:17.735Z,9.23
2017-07-06T11:18:44.447Z,10.80
2017-07-06T11:21:11.131Z,10.40
2017-07-06T11:23:37.791Z,13.27
2017-07-06T11:26:04.482Z,13.90
2017-07-06T11:28:31.151Z,17.60
2017-07-06T11:30:57.803Z,18.60
2017-07-06T11:33:24.548Z,22.03
2017-07-06T11:35:51.201Z,22.60
2017-07-06T11:38:17.858Z,23.77
2017-07-06T11:40:44.575Z,25.13
2017-07-06T11:43:11.232Z,24.80
2017-07-06T11:45:37.906Z,26.17
2017-07-06T11:48:04.599Z,26.43
2017-07-06T11:50:31.276Z,29.23
2017-07-06T11:52:57.936Z,29.20
2017-07-06T11:55:24.655Z,33.50
2017-07-06T11:57:51.316Z,33.30
2017-07-06T12:00:17.968Z,37.93
2017-07-06T12:02:44.634Z,42.03
2017-07-06T12:05:11.315Z,45.47
2017-07-06T12:07:37.971Z,43.60
2017-07-06T12:10:04.646Z,40.53
2017-07-06T12:12:32.116Z,35.93
2017-07-06T12:14:58.783Z,37.67
2017-07-06T12:17:25.495Z,40.77
2017-07-06T12:19:52.155Z,42.83
2017-07-06T12:22:18.822Z,35.10
2017-07-06T12:24:45.503Z,36.40
2017-07-06T12:27:12.197Z,36.90
2017-07-06T12:29:38.857Z,36.53
2017-07-06T12:32:05.536Z,33.10
2017-07-06T12:34:32.175Z,35.17
2017-07-06T12:36:58.847Z,37.97
2017-07-06T12:39:25.513Z,37.90
2017-07-06T12:41:52.182Z,31.07
2017-07-06T12:44:18.864Z,31.87
2017-07-06T12:46:45.527Z,36.83
2017-07-06T12:49:12.225Z,35.77
2017-07-06T12:51:38.882Z,31.20
2017-07-06T12:54:05.584Z,28.30
2017-07-06T12:56:32.247Z,32.43
2017-07-06T12:58:58.908Z,23.43
2017-07-06T13:01:25.575Z,23.90
2017-07-06T13:03:52.252Z,23.33
2017-07-06T13:06:18.923Z,22.30
2017-07-06T13:08:45.619Z,22.20
2017-07-06T13:11:12.283Z,23.30
2017-07-06T13:13:38.951Z,24.43
2017-07-06T13:16:05.698Z,23.53
2017-07-06T13:18:32.355Z,21.27
2017-07-06T13:20:59.028Z,20.43
2017-07-06T13:23:25.687Z,19.57
2017-07-06T13:25:52.349Z,18.13
2017-07-06T13:28:18.993Z,17.00
2017-07-06T13:30:45.664Z,14.83
2017-07-06T13:33:12.319Z,11.80
2017-07-06T13:35:38.965Z,22.30
2017-07-06T13:38:05.670Z,13.43
2017-07-06T13:40:32.313Z,12.53
2017-07-06T13:42:58.976Z,11.40
2017-07-06T13:45:25.632Z,9.70
2017-07-06T13:47:52.268Z,9.70
2017-07-06T13:50:18.910Z,8.43
2017-07-06T13:52:45.596Z,9.00
2017-07-06T13:55:12.228Z,8.27
2017-07-06T13:57:38.887Z,8.00
2017-07-06T14:00:05.580Z,7.87
2017-07-06T14:02:32.216Z,7.27
2017-07-06T14:04:58.864Z,7.37
2017-07-06T14:07:25.623Z,7.50
2017-07-06T14:09:52.287Z,6.10
2017-07-06T14:12:18.947Z,7.73
2017-07-06T14:14:45.632Z,8.40
2017-07-06T14:17:12.268Z,8.40
2017-07-06T14:19:38.925Z,7.80
2017-07-06T14:22:05.619Z,7.00
2017-07-06T14:24:32.274Z,6.50
2017-07-06T14:26:58.938Z,6.70
2017-07-06T14:29:25.643Z,5.07
2017-07-06T14:31:52.303Z,5.30
2017-07-06T14:34:18.942Z,4.77
2017-07-06T14:36:45.644Z,5.07
2017-07-06T14:39:12.288Z,4.67
2017-07-06T14:41:38.928Z,4.80
2017-07-06T14:44:05.593Z,4.30
2017-07-06T14:46:32.243Z,4.27
2017-07-06T14:48:58.927Z,4.13
2017-07-06T14:51:25.590Z,3.70
2017-07-06T14:53:52.251Z,3.80
2017-07-06T14:56:18.915Z,4.50
2017-07-06T14:58:45.631Z,4.20
2017-07-06T15:01:12.284Z,5.10
2017-07-06T15:03:38.938Z,4.83
2017-07-06T15:06:05.596Z,4.20
2017-07-06T15:08:32.235Z,4.60
2017-07-06T15:10:58.876Z,3.90
2017-07-06T15:13:25.548Z,3.23
2017-07-06T15:15:52.187Z,3.33
2017-07-06T15:18:18.831Z,3.50
2017-07-06T15:20:45.500Z,4.20
2017-07-06T15:23:12.154Z,3.27
2017-07-06T15:25:38.821Z,4.30
2017-07-06T15:28:05.511Z,3.07
2017-07-06T15:30:32.149Z,3.73
2017-07-06T15:32:58.785Z,3.73
2017-07-06T15:35:25.436Z,4.07
2017-07-06T15:37:52.076Z,4.50
2017-07-06T15:40:18.717Z,3.20
2017-07-06T15:42:45.415Z,3.50
2017-07-06T15:45:12.048Z,3.23
2017-07-06T15:47:38.693Z,3.90
2017-07-06T15:50:05.390Z,3.47
2017-07-06T15:52:32.028Z,3.10
2017-07-06T15:54:58.669Z,3.20
2017-07-06T15:57:25.372Z,3.97
2017-07-06T15:59:52.009Z,3.67
2017-07-06T16:02:18.652Z,3.70
2017-07-06T16:04:45.351Z,3.10
2017-07-06T16:07:12.047Z,3.03
2017-07-06T16:09:38.705Z,3.90
2017-07-06T16:12:05.402Z,4.00
2017-07-06T16:14:32.063Z,3.50
2017-07-06T16:16:58.740Z,3.40
2017-07-06T16:19:25.498Z,3.30
2017-07-06T16:21:52.154Z,3.57
2017-07-06T16:24:18.782Z,3.43
2017-07-06T16:26:45.487Z,3.57
2017-07-06T16:29:12.176Z,3.40
2017-07-06T16:31:38.834Z,3.60
2017-07-06T16:34:05.511Z,3.40
2017-07-06T16:36:32.194Z,3.60
2017-07-06T16:38:58.833Z,4.23
2017-07-06T16:41:25.543Z,4.03
2017-07-06T16:43:52.172Z,3.67
2017-07-06T16:46:18.812Z,3.80
2017-07-06T16:48:45.481Z,3.90
2017-07-06T16:51:12.139Z,3.07
2017-07-06T16:53:38.776Z,3.50
2017-07-06T16:56:05.447Z,3.10
2017-07-06T16:58:32.096Z,3.43
2017-07-06T17:00:58.753Z,2.63
2017-07-06T17:03:25.454Z,2.93
2017-07-06T17:05:52.106Z,2.70
2017-07-06T17:08:18.764Z,2.60
2017-07-06T17:10:45.484Z,3.10
2017-07-06T17:13:12.136Z,3.40
2017-07-06T17:15:38.783Z,2.60
2017-07-06T17:18:05.457Z,2.83
2017-07-06T17:20:32.175Z,3.10
2017-07-06T17:22:58.831Z,3.67
2017-07-06T17:25:25.491Z,4.00
2017-07-06T17:27:52.162Z,3.13
2017-07-06T17:30:18.821Z,3.40
2017-07-06T17:32:45.455Z,2.77
2017-07-06T17:35:12.126Z,3.13
2017-07-06T17:37:38.759Z,2.83
2017-07-06T17:40:05.449Z,2.80
2017-07-06T17:42:32.139Z,2.40
2017-07-06T17:44:58.795Z,2.60
2017-07-06T17:47:25.466Z,2.77
2017-07-06T17:49:52.105Z,2.47
2017-07-06T17:52:18.756Z,2.20
2017-07-06T17:54:45.392Z,2.67
2017-07-06T17:57:12.036Z,3.00
2017-07-06T17:59:38.693Z,3.17
2017-07-06T18:02:05.416Z,3.60
2017-07-06T18:04:32.189Z,3.73
2017-07-06T18:06:58.843Z,4.47
2017-07-06T18:09:25.516Z,5.43
2017-07-06T18:11:52.171Z,4.67
2017-07-06T18:14:18.860Z,5.00
2017-07-06T18:16:45.542Z,5.63
2017-07-06T18:19:12.244Z,6.20
2017-07-06T18:21:38.959Z,5.77
2017-07-06T18:24:05.610Z,6.77
2017-07-06T18:26:32.261Z,6.90
2017-07-06T18:28:58.959Z,7.20
2017-07-06T18:31:25.605Z,7.30
2017-07-06T18:33:52.275Z,9.97
2017-07-06T18:36:18.962Z,7.50
2017-07-06T18:38:45.613Z,7.50
2017-07-06T18:41:12.264Z,7.50
2017-07-06T18:43:38.958Z,6.40
2017-07-06T18:46:05.640Z,6.30
2017-07-06T18:48:32.277Z,6.23
2017-07-06T18:50:58.939Z,6.60
2017-07-06T18:53:25.605Z,6.43
2017-07-06T18:55:52.338Z,6.90
2017-07-06T18:58:19.008Z,6.40
2017-07-06T19:00:45.722Z,6.30
2017-07-06T19:03:12.404Z,7.13
2017-07-06T19:05:39.089Z,7.10
2017-07-06T19:08:05.779Z,6.20
2017-07-06T19:10:32.443Z,6.93
2017-07-06T19:12:59.104Z,6.77
2017-07-06T19:15:25.803Z,6.40
2017-07-06T19:17:52.464Z,6.23
2017-07-06T19:20:19.122Z,7.20
2017-07-06T19:22:45.837Z,6.83
2017-07-06T19:25:12.507Z,7.37
2017-07-06T19:27:39.148Z,7.43
2017-07-06T19:30:05.861Z,7.57
2017-07-06T19:32:32.527Z,7.10
2017-07-06T19:34:59.173Z,7.77
2017-07-06T19:37:25.878Z,7.40
2017-07-06T19:39:52.564Z,6.80
2017-07-06T19:42:19.269Z,8.17
2017-07-06T19:44:45.968Z,7.03
2017-07-06T19:47:12.640Z,8.00
2017-07-06T19:49:39.307Z,8.20
2017-07-06T19:52:05.959Z,7.03
2017-07-06T19:54:32.646Z,7.90
2017-07-06T19:56:59.323Z,7.27
2017-07-06T19:59:26.007Z,7.50
2017-07-06T20:01:52.708Z,6.50
2017-07-06T20:04:19.399Z,7.60
2017-07-06T20:06:46.041Z,7.63
2017-07-06T20:09:12.757Z,7.07
2017-07-06T20:11:39.520Z,7.23
2017-07-06T20:14:06.190Z,7.10
2017-07-06T20:16:32.851Z,6.60
2017-07-06T20:18:59.537Z,6.50
2017-07-06T20:21:26.181Z,6.20
2017-07-06T20:23:52.831Z,5.70
2017-07-06T20:26:19.529Z,6.07
2017-07-06T20:28:46.164Z,5.70
2017-07-06T20:31:12.812Z,4.93
2017-07-06T20:33:39.501Z,5.50
2017-07-06T20:36:06.147Z,5.33
2017-07-06T20:38:32.851Z,4.90
2017-07-06T20:40:59.532Z,5.10
2017-07-06T20:43:26.168Z,4.87
2017-07-06T20:45:52.871Z,4.63
2017-07-06T20:48:19.507Z,4.20
2017-07-06T20:50:46.190Z,5.00
2017-07-06T20:53:12.824Z,4.07
2017-07-06T20:55:39.493Z,4.78
2017-07-06T20:58:06.196Z,4.10
2017-07-06T21:00:32.899Z,4.47
2017-07-06T21:02:59.533Z,4.17
2017-07-06T21:05:26.240Z,3.87
2017-07-06T21:07:52.902Z,4.43
2017-07-06T21:10:19.563Z,4.13
2017-07-06T21:12:46.196Z,3.60
2017-07-06T21:15:12.878Z,3.37
2017-07-06T21:17:39.576Z,3.30
2017-07-06T21:20:06.234Z,3.23
2017-07-06T21:22:32.907Z,3.60
2017-07-06T21:24:59.603Z,2.10
2017-07-06T21:27:26.250Z,3.50
2017-07-06T21:29:52.912Z,2.37
2017-07-06T21:32:19.586Z,2.07
2017-07-06T21:34:46.267Z,2.20
2017-07-06T21:37:13.010Z,1.97
2017-07-06T21:39:39.673Z,1.80
2017-07-06T21:42:06.331Z,1.90
2017-07-06T21:44:32.989Z,2.20
2017-07-06T21:46:59.698Z,1.83
2017-07-06T21:49:26.337Z,1.80
2017-07-06T21:51:52.977Z,1.80
2017-07-06T21:54:19.728Z,2.00
2017-07-06T21:56:46.388Z,1.70
2017-07-06T21:59:13.036Z,1.80
2017-07-06T22:01:39.728Z,1.80
2017-07-06T22:04:06.399Z,2.03
2017-07-06T22:06:33.079Z,2.30
2017-07-06T22:09:01.812Z,2.00
2017-07-06T22:11:28.475Z,2.20
2017-07-06T22:13:55.118Z,1.90
2017-07-06T22:16:21.782Z,2.10
2017-07-06T22:18:48.421Z,1.97
2017-07-06T22:21:15.075Z,2.00
2017-07-06T22:23:41.783Z,1.90
2017-07-06T22:26:08.425Z,2.40
2017-07-06T22:28:35.080Z,2.30
2017-07-06T22:31:01.745Z,2.30
2017-07-06T22:33:28.379Z,2.00
2017-07-06T22:35:55.015Z,2.27
2017-07-06T22:38:21.665Z,2.57
2017-07-06T22:40:48.323Z,1.90
2017-07-06T22:43:14.985Z,2.00
2017-07-06T22:45:41.687Z,2.07
2017-07-06T22:48:08.321Z,2.33
2017-07-06T22:50:34.975Z,2.20
2017-07-06T22:53:01.635Z,2.00
2017-07-06T22:55:28.283Z,2.20
2017-07-06T22:57:54.943Z,2.13
2017-07-06T23:00:21.641Z,2.27
2017-07-06T23:02:48.298Z,2.30
2017-07-06T23:05:14.952Z,2.70
2017-07-06T23:07:41.639Z,2.97
2017-07-06T23:10:08.290Z,2.60
2017-07-06T23:12:34.920Z,2.47
2017-07-06T23:15:01.592Z,2.57
2017-07-06T23:17:28.228Z,2.90
2017-07-06T23:19:54.865Z,2.43
2017-07-06T23:22:21.551Z,3.13
2017-07-06T23:24:48.198Z,3.10
2017-07-06T23:27:14.860Z,2.90
2017-07-06T23:29:41.526Z,3.37
2017-07-06T23:32:08.180Z,3.63
2017-07-06T23:34:34.838Z,2.77
2017-07-06T23:37:01.503Z,3.10
2017-07-06T23:39:28.140Z,3.13
2017-07-06T23:41:54.788Z,3.30
2017-07-06T23:44:21.446Z,3.57
2017-07-06T23:46:48.133Z,3.40
2017-07-06T23:49:14.792Z,4.37
2017-07-06T23:51:41.448Z,2.97
2017-07-06T23:54:08.111Z,3.70
2017-07-06T23:56:34.748Z,3.37
2017-07-06T23:59:01.444Z,3.30
